sensor_id;sensor_type;location;lat;lon;timestamp;P1;durP1;ratioP1;P2;durP2;ratioP2
66702;SDS011;60933;46.398;-63.798;2023-03-18T05:37:11;1.88;;;1.05;;
66702;SDS011;60933;46.398;-63.798;2023-03-18T05:39:45;0.98;;;0.70;;
66702;SDS011;60933;46.398;-63.798;2023-03-18T05:42:14;2.97;;;0.93;;
66702;SDS011;60933;46.398;-63.798;2023-03-18T05:44:41;0.85;;;0.75;;
66702;SDS011;60933;46.398;-63.798;2023-03-18T05:47:10;0.88;;;0.30;;
66702;SDS011;60933;46.398;-63.798;2023-03-18T05:49:37;2.20;;;0.90;;
66702;SDS011;60933;46.398;-63.798;2023-03-18T05:54:29;5.15;;;1.20;;
66702;SDS011;60933;46.398;-63.798;2023-03-18T05:56:58;1.38;;;0.98;;
66702;SDS011;60933;46.398;-63.798;2023-03-18T06:01:50;0.90;;;0.85;;
66702;SDS011;60933;46.398;-63.798;2023-03-18T06:04:18;1.00;;;0.80;;
66702;SDS011;60933;46.398;-63.798;2023-03-18T06:06:44;2.15;;;1.00;;
66702;SDS011;60933;46.398;-63.798;2023-03-18T06:09:11;1.25;;;1.08;;
66702;SDS011;60933;46.398;-63.798;2023-03-18T06:11:38;3.55;;;1.30;;
66702;SDS011;60933;46.398;-63.798;2023-03-18T06:14:05;1.98;;;0.98;;
66702;SDS011;60933;46.398;-63.798;2023-03-18T06:16:32;1.00;;;1.00;;
66702;SDS011;60933;46.398;-63.798;2023-03-18T06:18:59;1.15;;;0.40;;
66702;SDS011;60933;46.398;-63.798;2023-03-18T06:21:26;0.73;;;0.50;;
66702;SDS011;60933;46.398;-63.798;2023-03-18T06:23:53;2.17;;;1.38;;
66702;SDS011;60933;46.398;-63.798;2023-03-18T06:26:19;0.93;;;0.85;;
66702;SDS011;60933;46.398;-63.798;2023-03-18T06:28:46;2.58;;;0.98;;
66702;SDS011;60933;46.398;-63.798;2023-03-18T06:33:38;0.70;;;0.70;;
66702;SDS011;60933;46.398;-63.798;2023-03-18T06:36:04;2.55;;;1.00;;
66702;SDS011;60933;46.398;-63.798;2023-03-18T06:38:30;0.90;;;0.90;;
66702;SDS011;60933;46.398;-63.798;2023-03-18T06:40:57;1.05;;;0.82;;
66702;SDS011;60933;46.398;-63.798;2023-03-18T06:43:24;1.75;;;0.95;;
66702;SDS011;60933;46.398;-63.798;2023-03-18T06:45:51;0.80;;;0.75;;
66702;SDS011;60933;46.398;-63.798;2023-03-18T06:48:17;1.25;;;1.02;;
66702;SDS011;60933;46.398;-63.798;2023-03-18T06:50:44;1.13;;;0.93;;
66702;SDS011;60933;46.398;-63.798;2023-03-18T06:53:10;1.48;;;0.63;;
66702;SDS011;60933;46.398;-63.798;2023-03-18T06:55:37;1.25;;;1.10;;
66702;SDS011;60933;46.398;-63.798;2023-03-18T06:58:03;1.08;;;0.88;;
66702;SDS011;60933;46.398;-63.798;2023-03-18T07:00:30;1.52;;;0.85;;
66702;SDS011;60933;46.398;-63.798;2023-03-18T07:02:58;0.70;;;0.70;;
66702;SDS011;60933;46.398;-63.798;2023-03-18T07:05:25;0.90;;;0.90;;
66702;SDS011;60933;46.398;-63.798;2023-03-18T07:07:52;2.58;;;1.65;;
66702;SDS011;60933;46.398;-63.798;2023-03-18T07:10:25;1.73;;;1.33;;
66702;SDS011;60933;46.398;-63.798;2023-03-18T07:12:54;1.25;;;0.65;;
66702;SDS011;60933;46.398;-63.798;2023-03-18T07:15:21;1.73;;;1.63;;
66702;SDS011;60933;46.398;-63.798;2023-03-18T07:17:48;2.00;;;1.08;;
66702;SDS011;60933;46.398;-63.798;2023-03-18T07:20:16;0.90;;;0.70;;
66702;SDS011;60933;46.398;-63.798;2023-03-18T07:22:43;0.80;;;0.80;;
66702;SDS011;60933;46.398;-63.798;2023-03-18T07:25:11;1.05;;;0.65;;
66702;SDS011;60933;46.398;-63.798;2023-03-18T07:27:38;4.00;;;1.77;;
66702;SDS011;60933;46.398;-63.798;2023-03-18T07:30:04;5.63;;;1.83;;
66702;SDS011;60933;46.398;-63.798;2023-03-18T07:32:34;2.65;;;1.27;;
66702;SDS011;60933;46.398;-63.798;2023-03-18T07:35:02;2.30;;;1.63;;
66702;SDS011;60933;46.398;-63.798;2023-03-18T07:37:30;0.82;;;0.70;;
66702;SDS011;60933;46.398;-63.798;2023-03-18T07:39:57;1.80;;;1.70;;
66702;SDS011;60933;46.398;-63.798;2023-03-18T07:42:23;1.55;;;1.45;;
66702;SDS011;60933;46.398;-63.798;2023-03-18T07:47:15;1.50;;;1.25;;
66702;SDS011;60933;46.398;-63.798;2023-03-18T07:49:41;1.20;;;1.10;;
66702;SDS011;60933;46.398;-63.798;2023-03-18T07:52:08;0.88;;;0.63;;
66702;SDS011;60933;46.398;-63.798;2023-03-18T07:54:34;0.75;;;0.70;;
66702;SDS011;60933;46.398;-63.798;2023-03-18T07:59:27;0.88;;;0.88;;
66702;SDS011;60933;46.398;-63.798;2023-03-18T08:04:19;0.93;;;0.93;;
66702;SDS011;60933;46.398;-63.798;2023-03-18T08:09:11;1.10;;;0.98;;
66702;SDS011;60933;46.398;-63.798;2023-03-18T08:14:03;1.75;;;1.08;;
66702;SDS011;60933;46.398;-63.798;2023-03-18T08:18:55;1.08;;;0.95;;
66702;SDS011;60933;46.398;-63.798;2023-03-18T08:21:21;0.90;;;0.68;;
66702;SDS011;60933;46.398;-63.798;2023-03-18T08:26:12;2.40;;;1.15;;
66702;SDS011;60933;46.398;-63.798;2023-03-18T08:31:04;0.85;;;0.30;;
66702;SDS011;60933;46.398;-63.798;2023-03-18T08:35:56;1.15;;;0.70;;
66702;SDS011;60933;46.398;-63.798;2023-03-18T08:38:23;2.30;;;1.10;;
66702;SDS011;60933;46.398;-63.798;2023-03-18T08:40:50;1.73;;;0.80;;
66702;SDS011;60933;46.398;-63.798;2023-03-18T08:43:16;0.75;;;0.75;;
66702;SDS011;60933;46.398;-63.798;2023-03-18T08:45:42;1.38;;;1.05;;
66702;SDS011;60933;46.398;-63.798;2023-03-18T08:48:08;1.77;;;1.25;;
66702;SDS011;60933;46.398;-63.798;2023-03-18T08:50:35;1.15;;;1.05;;
66702;SDS011;60933;46.398;-63.798;2023-03-18T08:53:01;1.02;;;0.93;;
66702;SDS011;60933;46.398;-63.798;2023-03-18T08:55:32;1.08;;;0.90;;
66702;SDS011;60933;46.398;-63.798;2023-03-18T08:58:01;1.20;;;1.10;;
66702;SDS011;60933;46.398;-63.798;2023-03-18T09:00:28;1.40;;;1.27;;
66702;SDS011;60933;46.398;-63.798;2023-03-18T09:02:54;1.38;;;0.93;;
66702;SDS011;60933;46.398;-63.798;2023-03-18T09:05:20;1.17;;;1.00;;
66702;SDS011;60933;46.398;-63.798;2023-03-18T09:10:13;0.80;;;0.80;;
66702;SDS011;60933;46.398;-63.798;2023-03-18T09:12:41;2.50;;;1.05;;
66702;SDS011;60933;46.398;-63.798;2023-03-18T09:15:09;0.82;;;0.70;;
66702;SDS011;60933;46.398;-63.798;2023-03-18T09:17:36;1.17;;;1.08;;
66702;SDS011;60933;46.398;-63.798;2023-03-18T09:20:05;1.75;;;1.05;;
66702;SDS011;60933;46.398;-63.798;2023-03-18T09:22:33;3.38;;;0.90;;
66702;SDS011;60933;46.398;-63.798;2023-03-18T09:24:59;1.20;;;0.63;;
66702;SDS011;60933;46.398;-63.798;2023-03-18T09:29:51;1.30;;;1.02;;
66702;SDS011;60933;46.398;-63.798;2023-03-18T09:34:43;1.83;;;1.15;;
66702;SDS011;60933;46.398;-63.798;2023-03-18T09:39:37;0.73;;;0.73;;
66702;SDS011;60933;46.398;-63.798;2023-03-18T09:42:26;0.88;;;0.75;;
66702;SDS011;60933;46.398;-63.798;2023-03-18T09:45:03;1.73;;;0.88;;
66702;SDS011;60933;46.398;-63.798;2023-03-18T09:50:42;2.88;;;1.02;;
66702;SDS011;60933;46.398;-63.798;2023-03-18T09:56:45;2.05;;;1.42;;
66702;SDS011;60933;46.398;-63.798;2023-03-18T09:59:15;1.67;;;1.17;;
66702;SDS011;60933;46.398;-63.798;2023-03-18T10:01:53;3.00;;;1.02;;
66702;SDS011;60933;46.398;-63.798;2023-03-18T10:04:31;1.55;;;1.23;;
66702;SDS011;60933;46.398;-63.798;2023-03-18T10:07:10;2.08;;;1.15;;
66702;SDS011;60933;46.398;-63.798;2023-03-18T10:09:40;1.73;;;1.00;;
66702;SDS011;60933;46.398;-63.798;2023-03-18T10:17:55;2.38;;;1.08;;
66702;SDS011;60933;46.398;-63.798;2023-03-18T10:20:51;3.40;;;0.93;;
66702;SDS011;60933;46.398;-63.798;2023-03-18T10:26:15;3.58;;;1.02;;
66702;SDS011;60933;46.398;-63.798;2023-03-18T10:31:50;1.33;;;0.95;;
66702;SDS011;60933;46.398;-63.798;2023-03-18T10:34:26;2.50;;;0.90;;
66702;SDS011;60933;46.398;-63.798;2023-03-18T10:37:15;2.05;;;0.70;;
66702;SDS011;60933;46.398;-63.798;2023-03-18T10:39:54;1.25;;;0.88;;
66702;SDS011;60933;46.398;-63.798;2023-03-18T10:42:27;1.52;;;0.98;;
66702;SDS011;60933;46.398;-63.798;2023-03-18T10:45:38;1.25;;;0.93;;
66702;SDS011;60933;46.398;-63.798;2023-03-18T10:48:04;1.13;;;1.02;;
66702;SDS011;60933;46.398;-63.798;2023-03-18T10:50:41;2.83;;;1.08;;
66702;SDS011;60933;46.398;-63.798;2023-03-18T10:55:47;1.75;;;0.73;;
66702;SDS011;60933;46.398;-63.798;2023-03-18T10:58:16;1.23;;;1.10;;
66702;SDS011;60933;46.398;-63.798;2023-03-18T11:00:43;1.23;;;1.10;;
66702;SDS011;60933;46.398;-63.798;2023-03-18T11:03:21;2.80;;;1.20;;
66702;SDS011;60933;46.398;-63.798;2023-03-18T11:05:51;1.33;;;1.23;;
66702;SDS011;60933;46.398;-63.798;2023-03-18T11:08:38;1.92;;;1.13;;
66702;SDS011;60933;46.398;-63.798;2023-03-18T11:11:21;2.00;;;1.25;;
66702;SDS011;60933;46.398;-63.798;2023-03-18T11:13:56;2.63;;;0.90;;
66702;SDS011;60933;46.398;-63.798;2023-03-18T11:16:38;1.27;;;1.15;;
66702;SDS011;60933;46.398;-63.798;2023-03-18T11:22:09;3.00;;;1.17;;
66702;SDS011;60933;46.398;-63.798;2023-03-18T11:24:42;1.20;;;1.10;;
66702;SDS011;60933;46.398;-63.798;2023-03-18T11:29:42;1.67;;;1.00;;
66702;SDS011;60933;46.398;-63.798;2023-03-18T11:32:32;0.98;;;0.82;;
66702;SDS011;60933;46.398;-63.798;2023-03-18T11:34:59;1.63;;;1.52;;
66702;SDS011;60933;46.398;-63.798;2023-03-18T11:37:34;1.08;;;1.05;;
66702;SDS011;60933;46.398;-63.798;2023-03-18T11:40:25;0.93;;;0.93;;
66702;SDS011;60933;46.398;-63.798;2023-03-18T11:42:53;1.00;;;0.90;;
66702;SDS011;60933;46.398;-63.798;2023-03-18T11:45:37;2.75;;;1.30;;
66702;SDS011;60933;46.398;-63.798;2023-03-18T11:48:21;2.55;;;0.93;;
66702;SDS011;60933;46.398;-63.798;2023-03-18T11:54:21;0.88;;;0.82;;
66702;SDS011;60933;46.398;-63.798;2023-03-18T11:57:44;0.93;;;0.93;;
66702;SDS011;60933;46.398;-63.798;2023-03-18T12:10:57;3.58;;;1.05;;
66702;SDS011;60933;46.398;-63.798;2023-03-18T12:16:22;1.90;;;0.90;;
66702;SDS011;60933;46.398;-63.798;2023-03-18T12:22:01;1.20;;;1.05;;
66702;SDS011;60933;46.398;-63.798;2023-03-18T12:25:06;2.97;;;1.55;;
66702;SDS011;60933;46.398;-63.798;2023-03-18T12:27:52;1.48;;;1.38;;
66702;SDS011;60933;46.398;-63.798;2023-03-18T12:38:37;1.95;;;1.00;;
66702;SDS011;60933;46.398;-63.798;2023-03-18T12:41:18;1.95;;;1.20;;
66702;SDS011;60933;46.398;-63.798;2023-03-18T12:47:08;1.27;;;1.17;;
66702;SDS011;60933;46.398;-63.798;2023-03-18T12:49:45;2.08;;;1.08;;
66702;SDS011;60933;46.398;-63.798;2023-03-18T12:52:17;1.50;;;0.88;;
66702;SDS011;60933;46.398;-63.798;2023-03-18T12:57:56;1.13;;;1.02;;
66702;SDS011;60933;46.398;-63.798;2023-03-18T13:00:34;1.10;;;1.00;;
66702;SDS011;60933;46.398;-63.798;2023-03-18T13:03:05;1.02;;;0.95;;
66702;SDS011;60933;46.398;-63.798;2023-03-18T13:11:36;1.10;;;0.95;;
66702;SDS011;60933;46.398;-63.798;2023-03-18T13:17:08;0.70;;;0.63;;
66702;SDS011;60933;46.398;-63.798;2023-03-18T13:19:39;1.38;;;0.93;;
66702;SDS011;60933;46.398;-63.798;2023-03-18T13:28:10;1.20;;;1.08;;
66702;SDS011;60933;46.398;-63.798;2023-03-18T13:39:14;0.93;;;0.82;;
66702;SDS011;60933;46.398;-63.798;2023-03-18T13:44:15;1.20;;;1.10;;
66702;SDS011;60933;46.398;-63.798;2023-03-18T13:46:56;0.70;;;0.70;;
66702;SDS011;60933;46.398;-63.798;2023-03-18T13:49:28;1.10;;;1.00;;
66702;SDS011;60933;46.398;-63.798;2023-03-18T13:51:57;1.00;;;0.90;;
66702;SDS011;60933;46.398;-63.798;2023-03-18T13:54:43;1.23;;;1.13;;
66702;SDS011;60933;46.398;-63.798;2023-03-18T13:59:49;1.23;;;0.75;;
66702;SDS011;60933;46.398;-63.798;2023-03-18T14:07:56;0.77;;;0.77;;
66702;SDS011;60933;46.398;-63.798;2023-03-18T14:10:22;0.80;;;0.80;;
66702;SDS011;60933;46.398;-63.798;2023-03-18T14:12:49;1.50;;;0.85;;
66702;SDS011;60933;46.398;-63.798;2023-03-18T14:18:18;2.63;;;0.85;;
66702;SDS011;60933;46.398;-63.798;2023-03-18T14:20:53;1.08;;;0.98;;
66702;SDS011;60933;46.398;-63.798;2023-03-18T14:25:49;0.60;;;0.60;;
66702;SDS011;60933;46.398;-63.798;2023-03-18T14:28:29;1.13;;;0.70;;
66702;SDS011;60933;46.398;-63.798;2023-03-18T14:31:29;1.17;;;0.35;;
66702;SDS011;60933;46.398;-63.798;2023-03-18T14:34:00;0.98;;;0.90;;
66702;SDS011;60933;46.398;-63.798;2023-03-18T14:42:26;1.35;;;0.90;;
66702;SDS011;60933;46.398;-63.798;2023-03-18T14:45:17;3.17;;;1.17;;
66702;SDS011;60933;46.398;-63.798;2023-03-18T14:48:26;1.20;;;1.10;;
66702;SDS011;60933;46.398;-63.798;2023-03-18T14:50:55;1.52;;;1.13;;
66702;SDS011;60933;46.398;-63.798;2023-03-18T14:53:34;2.75;;;1.38;;
66702;SDS011;60933;46.398;-63.798;2023-03-18T14:56:02;2.10;;;0.95;;
66702;SDS011;60933;46.398;-63.798;2023-03-18T14:58:29;1.17;;;0.95;;
66702;SDS011;60933;46.398;-63.798;2023-03-18T15:01:05;1.58;;;0.90;;
66702;SDS011;60933;46.398;-63.798;2023-03-18T15:03:34;1.63;;;1.17;;
66702;SDS011;60933;46.398;-63.798;2023-03-18T15:06:03;1.75;;;1.65;;
66702;SDS011;60933;46.398;-63.798;2023-03-18T15:08:32;0.82;;;0.82;;
66702;SDS011;60933;46.398;-63.798;2023-03-18T15:11:02;3.03;;;1.33;;
66702;SDS011;60933;46.398;-63.798;2023-03-18T15:13:31;1.30;;;0.90;;
66702;SDS011;60933;46.398;-63.798;2023-03-18T15:15:57;3.30;;;1.60;;
66702;SDS011;60933;46.398;-63.798;2023-03-18T15:18:36;4.15;;;1.92;;
66702;SDS011;60933;46.398;-63.798;2023-03-18T15:23:50;1.05;;;0.90;;
66702;SDS011;60933;46.398;-63.798;2023-03-18T15:28:48;1.17;;;0.80;;
66702;SDS011;60933;46.398;-63.798;2023-03-18T15:31:25;2.65;;;1.17;;
66702;SDS011;60933;46.398;-63.798;2023-03-18T15:33:54;1.90;;;1.23;;
66702;SDS011;60933;46.398;-63.798;2023-03-18T15:36:29;3.20;;;1.35;;
66702;SDS011;60933;46.398;-63.798;2023-03-18T15:38:55;1.63;;;1.25;;
66702;SDS011;60933;46.398;-63.798;2023-03-18T15:41:21;1.42;;;1.15;;
66702;SDS011;60933;46.398;-63.798;2023-03-18T15:43:50;1.40;;;1.20;;
66702;SDS011;60933;46.398;-63.798;2023-03-18T15:46:29;2.08;;;0.90;;
66702;SDS011;60933;46.398;-63.798;2023-03-18T15:48:57;1.92;;;1.70;;
66702;SDS011;60933;46.398;-63.798;2023-03-18T15:51:34;0.80;;;0.60;;
66702;SDS011;60933;46.398;-63.798;2023-03-18T15:56:57;1.45;;;0.98;;
66702;SDS011;60933;46.398;-63.798;2023-03-18T15:59:26;2.20;;;1.50;;
66702;SDS011;60933;46.398;-63.798;2023-03-18T16:01:58;1.00;;;0.93;;
66702;SDS011;60933;46.398;-63.798;2023-03-18T16:04:28;1.08;;;1.05;;
66702;SDS011;60933;46.398;-63.798;2023-03-18T16:06:57;3.15;;;1.23;;
66702;SDS011;60933;46.398;-63.798;2023-03-18T16:09:24;2.25;;;0.90;;
66702;SDS011;60933;46.398;-63.798;2023-03-18T16:14:20;3.47;;;1.95;;
66702;SDS011;60933;46.398;-63.798;2023-03-18T16:16:50;3.65;;;2.00;;
66702;SDS011;60933;46.398;-63.798;2023-03-18T16:19:23;2.55;;;0.70;;
66702;SDS011;60933;46.398;-63.798;2023-03-18T16:21:52;1.90;;;0.90;;
66702;SDS011;60933;46.398;-63.798;2023-03-18T16:24:20;5.43;;;2.33;;
66702;SDS011;60933;46.398;-63.798;2023-03-18T16:26:48;2.55;;;1.38;;
66702;SDS011;60933;46.398;-63.798;2023-03-18T16:29:17;1.55;;;0.70;;
66702;SDS011;60933;46.398;-63.798;2023-03-18T16:31:51;2.05;;;0.82;;
66702;SDS011;60933;46.398;-63.798;2023-03-18T16:34:18;2.33;;;1.35;;
66702;SDS011;60933;46.398;-63.798;2023-03-18T16:36:45;3.15;;;1.10;;
66702;SDS011;60933;46.398;-63.798;2023-03-18T16:42:02;2.15;;;1.13;;
66702;SDS011;60933;46.398;-63.798;2023-03-18T16:44:29;2.92;;;1.52;;
66702;SDS011;60933;46.398;-63.798;2023-03-18T16:46:58;2.85;;;1.23;;
66702;SDS011;60933;46.398;-63.798;2023-03-18T16:49:30;6.75;;;2.08;;
66702;SDS011;60933;46.398;-63.798;2023-03-18T16:51:58;1.83;;;1.10;;
66702;SDS011;60933;46.398;-63.798;2023-03-18T16:54:28;1.27;;;0.35;;
66702;SDS011;60933;46.398;-63.798;2023-03-18T16:56:57;2.47;;;1.15;;
66702;SDS011;60933;46.398;-63.798;2023-03-18T16:59:33;1.90;;;1.77;;
66702;SDS011;60933;46.398;-63.798;2023-03-18T17:02:01;1.55;;;1.27;;
66702;SDS011;60933;46.398;-63.798;2023-03-18T17:04:29;2.58;;;1.30;;
66702;SDS011;60933;46.398;-63.798;2023-03-18T17:06:57;1.45;;;0.80;;
66702;SDS011;60933;46.398;-63.798;2023-03-18T17:09:26;1.50;;;1.38;;
66702;SDS011;60933;46.398;-63.798;2023-03-18T17:11:53;1.50;;;0.82;;
66702;SDS011;60933;46.398;-63.798;2023-03-18T17:17:14;3.10;;;1.00;;
66702;SDS011;60933;46.398;-63.798;2023-03-18T17:19:48;1.48;;;1.38;;
66702;SDS011;60933;46.398;-63.798;2023-03-18T17:22:22;4.70;;;1.52;;
66702;SDS011;60933;46.398;-63.798;2023-03-18T17:24:53;1.83;;;1.50;;
66702;SDS011;60933;46.398;-63.798;2023-03-18T17:27:20;4.70;;;1.55;;
66702;SDS011;60933;46.398;-63.798;2023-03-18T17:29:49;5.07;;;1.45;;
66702;SDS011;60933;46.398;-63.798;2023-03-18T17:32:16;1.20;;;1.02;;
66702;SDS011;60933;46.398;-63.798;2023-03-18T17:34:48;2.30;;;1.33;;
66702;SDS011;60933;46.398;-63.798;2023-03-18T17:39:41;2.60;;;1.17;;
66702;SDS011;60933;46.398;-63.798;2023-03-18T17:42:27;1.73;;;1.35;;
66702;SDS011;60933;46.398;-63.798;2023-03-18T17:44:58;2.28;;;1.25;;
66702;SDS011;60933;46.398;-63.798;2023-03-18T17:47:40;1.63;;;1.13;;
66702;SDS011;60933;46.398;-63.798;2023-03-18T17:50:11;2.28;;;1.40;;
66702;SDS011;60933;46.398;-63.798;2023-03-18T17:52:46;2.47;;;1.48;;
66702;SDS011;60933;46.398;-63.798;2023-03-18T17:55:15;2.90;;;1.20;;
66702;SDS011;60933;46.398;-63.798;2023-03-18T17:57:44;1.67;;;1.30;;
66702;SDS011;60933;46.398;-63.798;2023-03-18T18:00:14;1.92;;;1.05;;
66702;SDS011;60933;46.398;-63.798;2023-03-18T18:02:52;4.82;;;1.65;;
66702;SDS011;60933;46.398;-63.798;2023-03-18T18:05:19;2.72;;;1.52;;
66702;SDS011;60933;46.398;-63.798;2023-03-18T18:07:47;1.55;;;1.20;;
66702;SDS011;60933;46.398;-63.798;2023-03-18T18:10:14;2.85;;;0.50;;
66702;SDS011;60933;46.398;-63.798;2023-03-18T18:12:43;5.07;;;1.48;;
66702;SDS011;60933;46.398;-63.798;2023-03-18T18:15:21;3.80;;;1.75;;
66702;SDS011;60933;46.398;-63.798;2023-03-18T18:17:52;2.90;;;1.88;;
66702;SDS011;60933;46.398;-63.798;2023-03-18T18:20:19;3.40;;;1.25;;
66702;SDS011;60933;46.398;-63.798;2023-03-18T18:22:48;2.88;;;1.20;;
66702;SDS011;60933;46.398;-63.798;2023-03-18T18:25:21;3.92;;;1.48;;
66702;SDS011;60933;46.398;-63.798;2023-03-18T18:27:49;1.52;;;1.42;;
66702;SDS011;60933;46.398;-63.798;2023-03-18T18:30:17;2.72;;;1.25;;
66702;SDS011;60933;46.398;-63.798;2023-03-18T18:32:46;2.65;;;1.33;;
66702;SDS011;60933;46.398;-63.798;2023-03-18T18:35:19;3.22;;;1.55;;
66702;SDS011;60933;46.398;-63.798;2023-03-18T18:37:46;1.40;;;1.25;;
66702;SDS011;60933;46.398;-63.798;2023-03-18T18:40:14;4.25;;;0.95;;
66702;SDS011;60933;46.398;-63.798;2023-03-18T18:42:42;2.60;;;0.70;;
66702;SDS011;60933;46.398;-63.798;2023-03-18T18:45:08;1.80;;;1.02;;
66702;SDS011;60933;46.398;-63.798;2023-03-18T18:47:40;2.28;;;0.63;;
66702;SDS011;60933;46.398;-63.798;2023-03-18T18:50:14;0.77;;;0.63;;
66702;SDS011;60933;46.398;-63.798;2023-03-18T18:52:42;2.83;;;1.00;;
66702;SDS011;60933;46.398;-63.798;2023-03-18T18:55:09;2.83;;;1.27;;
66702;SDS011;60933;46.398;-63.798;2023-03-18T18:57:41;2.40;;;1.40;;
66702;SDS011;60933;46.398;-63.798;2023-03-18T19:00:15;2.58;;;1.08;;
66702;SDS011;60933;46.398;-63.798;2023-03-18T19:02:43;1.30;;;0.90;;
66702;SDS011;60933;46.398;-63.798;2023-03-18T19:05:11;3.53;;;1.48;;
66702;SDS011;60933;46.398;-63.798;2023-03-18T19:07:39;2.83;;;0.40;;
66702;SDS011;60933;46.398;-63.798;2023-03-18T19:10:10;2.15;;;0.98;;
66702;SDS011;60933;46.398;-63.798;2023-03-18T19:12:38;2.55;;;1.20;;
66702;SDS011;60933;46.398;-63.798;2023-03-18T19:15:05;2.45;;;1.13;;
66702;SDS011;60933;46.398;-63.798;2023-03-18T19:17:32;3.22;;;0.90;;
66702;SDS011;60933;46.398;-63.798;2023-03-18T19:19:58;4.60;;;2.30;;
66702;SDS011;60933;46.398;-63.798;2023-03-18T19:22:25;3.08;;;1.98;;
66702;SDS011;60933;46.398;-63.798;2023-03-18T19:24:52;4.63;;;0.80;;
66702;SDS011;60933;46.398;-63.798;2023-03-18T19:34:04;3.45;;;1.58;;
66702;SDS011;60933;46.398;-63.798;2023-03-18T19:36:51;1.60;;;1.15;;
66702;SDS011;60933;46.398;-63.798;2023-03-18T19:39:19;1.70;;;1.00;;
66702;SDS011;60933;46.398;-63.798;2023-03-18T19:41:46;2.10;;;1.30;;
66702;SDS011;60933;46.398;-63.798;2023-03-18T19:44:14;2.33;;;1.15;;
66702;SDS011;60933;46.398;-63.798;2023-03-18T19:46:49;4.22;;;1.17;;
66702;SDS011;60933;46.398;-63.798;2023-03-18T19:49:19;1.45;;;1.02;;
66702;SDS011;60933;46.398;-63.798;2023-03-18T19:51:49;1.58;;;0.90;;
66702;SDS011;60933;46.398;-63.798;2023-03-18T19:54:22;2.15;;;1.30;;
66702;SDS011;60933;46.398;-63.798;2023-03-18T19:56:52;1.77;;;1.10;;
66702;SDS011;60933;46.398;-63.798;2023-03-18T19:59:21;1.92;;;1.30;;
66702;SDS011;60933;46.398;-63.798;2023-03-18T20:01:49;2.67;;;1.20;;
66702;SDS011;60933;46.398;-63.798;2023-03-18T20:04:16;2.55;;;1.25;;
66702;SDS011;60933;46.398;-63.798;2023-03-18T20:06:44;3.95;;;1.13;;
66702;SDS011;60933;46.398;-63.798;2023-03-18T20:09:14;2.95;;;1.10;;
66702;SDS011;60933;46.398;-63.798;2023-03-18T20:11:44;1.30;;;1.05;;
66702;SDS011;60933;46.398;-63.798;2023-03-18T20:14:15;4.35;;;1.60;;
66702;SDS011;60933;46.398;-63.798;2023-03-18T20:16:48;8.50;;;2.42;;
66702;SDS011;60933;46.398;-63.798;2023-03-18T20:19:14;4.35;;;1.60;;
66702;SDS011;60933;46.398;-63.798;2023-03-18T20:21:40;5.60;;;1.65;;
66702;SDS011;60933;46.398;-63.798;2023-03-18T20:24:09;4.35;;;1.40;;
66702;SDS011;60933;46.398;-63.798;2023-03-18T20:26:38;2.47;;;1.08;;
66702;SDS011;60933;46.398;-63.798;2023-03-18T20:29:14;3.78;;;1.23;;
66702;SDS011;60933;46.398;-63.798;2023-03-18T20:31:42;4.10;;;0.85;;
66702;SDS011;60933;46.398;-63.798;2023-03-18T20:34:09;2.83;;;1.10;;
66702;SDS011;60933;46.398;-63.798;2023-03-18T20:36:35;1.73;;;1.30;;
66702;SDS011;60933;46.398;-63.798;2023-03-18T20:39:02;2.35;;;1.50;;
66702;SDS011;60933;46.398;-63.798;2023-03-18T20:41:34;2.38;;;1.38;;
66702;SDS011;60933;46.398;-63.798;2023-03-18T20:44:02;3.50;;;1.95;;
66702;SDS011;60933;46.398;-63.798;2023-03-18T20:46:28;2.97;;;1.17;;
66702;SDS011;60933;46.398;-63.798;2023-03-18T20:48:55;2.95;;;1.50;;
66702;SDS011;60933;46.398;-63.798;2023-03-18T20:53:55;5.57;;;2.28;;
66702;SDS011;60933;46.398;-63.798;2023-03-18T20:56:22;2.67;;;1.73;;
66702;SDS011;60933;46.398;-63.798;2023-03-18T20:58:49;2.58;;;1.50;;
66702;SDS011;60933;46.398;-63.798;2023-03-18T21:01:15;3.60;;;1.60;;
66702;SDS011;60933;46.398;-63.798;2023-03-18T21:03:42;3.17;;;1.35;;
66702;SDS011;60933;46.398;-63.798;2023-03-18T21:06:10;3.17;;;1.88;;
66702;SDS011;60933;46.398;-63.798;2023-03-18T21:08:38;3.45;;;1.50;;
66702;SDS011;60933;46.398;-63.798;2023-03-18T21:11:05;3.58;;;1.67;;
66702;SDS011;60933;46.398;-63.798;2023-03-18T21:13:41;2.05;;;1.73;;
66702;SDS011;60933;46.398;-63.798;2023-03-18T21:16:10;6.15;;;2.10;;
66702;SDS011;60933;46.398;-63.798;2023-03-18T21:18:38;2.30;;;1.92;;
66702;SDS011;60933;46.398;-63.798;2023-03-18T21:21:13;6.60;;;2.28;;
66702;SDS011;60933;46.398;-63.798;2023-03-18T21:23:54;3.92;;;1.85;;
66702;SDS011;60933;46.398;-63.798;2023-03-18T21:26:21;2.72;;;1.90;;
66702;SDS011;60933;46.398;-63.798;2023-03-18T21:28:47;4.55;;;2.38;;
66702;SDS011;60933;46.398;-63.798;2023-03-18T21:31:19;4.22;;;2.03;;
66702;SDS011;60933;46.398;-63.798;2023-03-18T21:33:57;3.13;;;1.80;;
66702;SDS011;60933;46.398;-63.798;2023-03-18T21:36:24;2.58;;;1.70;;
66702;SDS011;60933;46.398;-63.798;2023-03-18T21:38:50;5.95;;;2.25;;
66702;SDS011;60933;46.398;-63.798;2023-03-18T21:41:19;4.80;;;2.55;;
66702;SDS011;60933;46.398;-63.798;2023-03-18T21:43:48;7.72;;;2.58;;
66702;SDS011;60933;46.398;-63.798;2023-03-18T21:46:18;3.67;;;1.95;;
66702;SDS011;60933;46.398;-63.798;2023-03-18T21:48:49;5.22;;;2.13;;
66702;SDS011;60933;46.398;-63.798;2023-03-18T21:51:21;4.95;;;1.90;;
66702;SDS011;60933;46.398;-63.798;2023-03-18T21:54:02;4.68;;;2.58;;
66702;SDS011;60933;46.398;-63.798;2023-03-18T21:56:28;5.05;;;2.95;;
66702;SDS011;60933;46.398;-63.798;2023-03-18T21:59:16;6.57;;;4.38;;
66702;SDS011;60933;46.398;-63.798;2023-03-18T22:01:42;5.50;;;2.50;;
66702;SDS011;60933;46.398;-63.798;2023-03-18T22:04:17;5.95;;;3.33;;
66702;SDS011;60933;46.398;-63.798;2023-03-18T22:06:42;5.57;;;3.38;;
66702;SDS011;60933;46.398;-63.798;2023-03-18T22:09:08;5.80;;;2.67;;
66702;SDS011;60933;46.398;-63.798;2023-03-18T22:11:34;6.90;;;4.10;;
66702;SDS011;60933;46.398;-63.798;2023-03-18T22:14:01;8.57;;;3.53;;
66702;SDS011;60933;46.398;-63.798;2023-03-18T22:16:27;7.38;;;3.22;;
66702;SDS011;60933;46.398;-63.798;2023-03-18T22:18:52;7.22;;;3.25;;
66702;SDS011;60933;46.398;-63.798;2023-03-18T22:21:20;6.95;;;3.08;;
66702;SDS011;60933;46.398;-63.798;2023-03-18T22:23:49;6.38;;;3.78;;
66702;SDS011;60933;46.398;-63.798;2023-03-18T22:26:16;16.48;;;7.40;;
66702;SDS011;60933;46.398;-63.798;2023-03-18T22:28:43;16.55;;;7.43;;
66702;SDS011;60933;46.398;-63.798;2023-03-18T22:31:22;22.00;;;8.52;;
66702;SDS011;60933;46.398;-63.798;2023-03-18T22:33:50;15.95;;;6.53;;
66702;SDS011;60933;46.398;-63.798;2023-03-18T22:36:17;9.93;;;5.05;;
66702;SDS011;60933;46.398;-63.798;2023-03-18T22:38:45;10.63;;;4.80;;
66702;SDS011;60933;46.398;-63.798;2023-03-18T22:41:20;10.25;;;4.75;;
66702;SDS011;60933;46.398;-63.798;2023-03-18T22:43:55;8.82;;;4.15;;
66702;SDS011;60933;46.398;-63.798;2023-03-18T22:46:24;6.15;;;3.42;;
66702;SDS011;60933;46.398;-63.798;2023-03-18T22:48:52;7.85;;;4.60;;
66702;SDS011;60933;46.398;-63.798;2023-03-18T22:51:19;6.25;;;2.95;;
66702;SDS011;60933;46.398;-63.798;2023-03-18T22:53:50;5.93;;;3.20;;
66702;SDS011;60933;46.398;-63.798;2023-03-18T22:56:20;6.43;;;3.45;;
66702;SDS011;60933;46.398;-63.798;2023-03-18T22:58:46;6.05;;;3.00;;
66702;SDS011;60933;46.398;-63.798;2023-03-18T23:01:13;5.80;;;3.80;;
66702;SDS011;60933;46.398;-63.798;2023-03-18T23:03:41;8.18;;;4.05;;
66702;SDS011;60933;46.398;-63.798;2023-03-18T23:06:20;6.22;;;3.72;;
66702;SDS011;60933;46.398;-63.798;2023-03-18T23:08:51;4.80;;;2.90;;
66702;SDS011;60933;46.398;-63.798;2023-03-18T23:11:17;6.35;;;3.80;;